Terminal Aerodrome Forecast
Issued by NWS Charleston, WV

Current Version | Previous Version | Graphics & Text | Print | Product List | Glossary On
Versions: 1 2 3 4 5 6 7 8 9 10 11 12 13 14 15 16 17 18 19 20 21 22 23 24 25 26 27
000
FTUS41 KRLX 080500
TAFBKW
TAF
KBKW 080530Z 0806/0906 20006KT P6SM SKC
     FM080800 24007KT P6SM BKN040
     FM081800 23015G22KT 6SM +SHRA BR VCTS BKN040CB
     FM082200 23012G19KT 5SM +TSRA BR BKN035CB
     FM090200 25008KT P6SM VCTS BKN025CB=

USA.gov is the U.S. government's official web portal to all federal, state and local government web resources and services.